createdAt,value
2023-02-11T00:00:30.849Z,9.90
2023-02-11T00:03:43.021Z,9.90
2023-02-11T00:06:45.122Z,9.90
2023-02-11T00:09:47.277Z,9.90
2023-02-11T00:12:49.357Z,9.80
2023-02-11T00:15:52.218Z,9.80
2023-02-11T00:18:54.397Z,9.80
2023-02-11T00:21:56.412Z,9.80
2023-02-11T00:24:58.414Z,9.80
2023-02-11T00:28:00.617Z,9.80
2023-02-11T00:31:03.110Z,9.70
2023-02-11T00:34:06.552Z,9.70
2023-02-11T00:37:08.596Z,9.60
2023-02-11T00:40:11.323Z,9.60
2023-02-11T00:43:13.570Z,9.50
2023-02-11T00:46:16.503Z,9.40
2023-02-11T00:49:18.818Z,9.30
2023-02-11T00:52:21.388Z,9.20
2023-02-11T00:55:23.401Z,9.20
2023-02-11T00:58:25.486Z,9.10
2023-02-11T01:01:27.778Z,9.10
2023-02-11T01:04:30.115Z,9.10
2023-02-11T01:07:33.317Z,9.10
2023-02-11T01:10:35.340Z,9.10
2023-02-11T01:13:37.477Z,9.10
2023-02-11T01:16:40.446Z,9.10
2023-02-11T01:19:43.789Z,9.10
2023-02-11T01:22:46.144Z,9.00
2023-02-11T01:25:48.933Z,8.90
2023-02-11T01:28:51.348Z,8.90
2023-02-11T01:31:53.609Z,8.90
2023-02-11T01:34:55.846Z,8.90
2023-02-11T01:37:57.880Z,8.90
2023-02-11T01:41:07.056Z,8.90
2023-02-11T01:44:44.440Z,8.90
2023-02-11T01:47:46.470Z,8.90
2023-02-11T01:50:53.197Z,8.90
2023-02-11T01:54:15.725Z,8.90
2023-02-11T01:57:22.305Z,8.90
2023-02-11T02:00:37.039Z,8.90
2023-02-11T02:03:43.778Z,8.90
2023-02-11T02:06:55.622Z,8.90
2023-02-11T02:10:05.964Z,8.90
2023-02-11T02:13:08.094Z,8.80
2023-02-11T02:16:15.760Z,8.90
2023-02-11T02:19:36.558Z,8.80
2023-02-11T02:23:18.583Z,8.80
2023-02-11T02:26:57.087Z,8.80
2023-02-11T02:30:53.665Z,8.70
2023-02-11T02:34:08.495Z,8.70
2023-02-11T02:37:21.136Z,8.70
2023-02-11T02:40:46.717Z,8.70
2023-02-11T02:43:50.643Z,8.70
2023-02-11T02:46:52.738Z,8.70
2023-02-11T02:49:54.811Z,8.70
2023-02-11T02:52:57.258Z,8.70
2023-02-11T02:56:35.115Z,8.70
2023-02-11T02:59:58.807Z,8.70
2023-02-11T03:03:28.612Z,8.70
2023-02-11T03:06:45.781Z,8.70
2023-02-11T03:10:11.089Z,8.70
2023-02-11T03:13:17.185Z,8.70
2023-02-11T03:16:26.430Z,8.70
2023-02-11T03:19:41.079Z,8.70
2023-02-11T03:22:57.051Z,8.70
2023-02-11T03:26:19.331Z,8.70
2023-02-11T03:29:36.747Z,8.70
2023-02-11T03:32:56.062Z,8.70
2023-02-11T03:36:07.080Z,8.70
2023-02-11T03:39:11.136Z,8.70
2023-02-11T03:42:15.460Z,8.70
2023-02-11T03:45:21.990Z,8.70
2023-02-11T03:48:29.693Z,8.70
2023-02-11T03:51:40.720Z,8.70
2023-02-11T03:55:05.055Z,8.60
2023-02-11T03:58:08.541Z,8.70
2023-02-11T04:01:10.641Z,8.70
2023-02-11T04:04:13.710Z,8.60
2023-02-11T04:07:15.698Z,8.60
2023-02-11T04:10:18.082Z,8.60
2023-02-11T04:13:20.176Z,8.60
2023-02-11T04:16:22.277Z,8.60
2023-02-11T04:19:24.397Z,8.60
2023-02-11T04:22:26.426Z,8.50
2023-02-11T04:25:28.452Z,8.50
2023-02-11T04:28:31.595Z,8.50
2023-02-11T04:31:33.796Z,8.40
2023-02-11T04:34:35.804Z,8.40
2023-02-11T04:37:37.948Z,8.40
2023-02-11T04:40:40.408Z,8.30
2023-02-11T04:43:44.168Z,8.30
2023-02-11T04:46:46.198Z,8.30
2023-02-11T04:49:48.212Z,8.30
2023-02-11T04:52:50.285Z,8.40
2023-02-11T04:55:52.756Z,8.40
2023-02-11T04:58:55.958Z,8.40
2023-02-11T05:01:58.010Z,8.40
2023-02-11T05:05:00.122Z,8.40
2023-02-11T05:08:02.138Z,8.40
2023-02-11T05:11:04.621Z,8.40
2023-02-11T05:14:07.298Z,8.40
2023-02-11T05:17:09.384Z,8.40
2023-02-11T05:20:11.600Z,8.40
2023-02-11T05:23:14.611Z,8.40
2023-02-11T05:26:16.971Z,8.40
2023-02-11T05:29:21.503Z,8.40
2023-02-11T05:32:23.541Z,8.50
2023-02-11T05:35:25.713Z,8.40
2023-02-11T05:38:28.212Z,8.50
2023-02-11T05:41:30.189Z,8.40
2023-02-11T05:44:32.211Z,8.40
2023-02-11T05:47:34.347Z,8.30
2023-02-11T05:50:36.392Z,8.30
2023-02-11T05:53:38.764Z,8.30
2023-02-11T05:56:42.564Z,8.30
2023-02-11T05:59:45.658Z,8.30
2023-02-11T06:02:47.763Z,8.30
2023-02-11T06:05:50.306Z,8.20
2023-02-11T06:08:52.510Z,8.20
2023-02-11T06:11:54.564Z,8.20
2023-02-11T06:14:56.646Z,8.20
2023-02-11T06:17:58.725Z,8.20
2023-02-11T06:21:00.847Z,8.20
2023-02-11T06:24:03.379Z,8.20
2023-02-11T06:27:05.751Z,8.20
2023-02-11T06:30:08.520Z,8.20
2023-02-11T06:33:10.606Z,8.20
2023-02-11T06:36:17.889Z,8.10
2023-02-11T06:39:19.909Z,8.10
2023-02-11T06:42:22.042Z,8.10
2023-02-11T06:45:25.049Z,8.10
2023-02-11T06:48:27.102Z,8.10
2023-02-11T06:51:29.313Z,8.00
2023-02-11T06:54:32.602Z,8.00
2023-02-11T06:57:34.659Z,8.00
2023-02-11T07:00:37.727Z,8.00
2023-02-11T07:03:43.278Z,7.90
2023-02-11T07:06:45.357Z,8.00
2023-02-11T07:09:47.388Z,8.00
2023-02-11T07:12:49.416Z,8.00
2023-02-11T07:15:51.755Z,8.00
2023-02-11T07:18:54.428Z,7.90
2023-02-11T07:21:56.732Z,8.00
2023-02-11T07:24:58.742Z,8.00
2023-02-11T07:28:00.892Z,8.00
2023-02-11T07:31:20.044Z,8.00
2023-02-11T07:34:22.409Z,8.00
2023-02-11T07:37:24.522Z,8.00
2023-02-11T07:40:26.601Z,8.00
2023-02-11T07:43:29.309Z,8.10
2023-02-11T07:46:31.711Z,8.10
2023-02-11T07:49:34.716Z,8.10
2023-02-11T07:52:36.907Z,8.20
2023-02-11T07:55:38.926Z,8.20
2023-02-11T07:58:43.917Z,8.30
2023-02-11T08:01:46.004Z,8.30
2023-02-11T08:04:48.048Z,8.40
2023-02-11T08:07:53.896Z,8.40
2023-02-11T08:10:55.968Z,8.50
2023-02-11T08:13:58.184Z,8.60
2023-02-11T08:17:01.567Z,8.70
2023-02-11T08:20:04.941Z,9.00
2023-02-11T08:23:10.074Z,9.50
2023-02-11T08:26:18.291Z,10.00
2023-02-11T08:29:20.288Z,10.50
2023-02-11T08:32:26.930Z,10.40
2023-02-11T08:35:29.071Z,10.40
2023-02-11T08:38:31.980Z,10.50
2023-02-11T08:41:34.889Z,10.40
2023-02-11T08:44:36.917Z,10.40
2023-02-11T08:47:39.821Z,10.60
2023-02-11T08:50:41.912Z,11.10
2023-02-11T08:53:44.373Z,11.50
2023-02-11T08:56:46.503Z,11.80
2023-02-11T08:59:48.700Z,12.20
2023-02-11T09:02:50.889Z,12.30
2023-02-11T09:05:57.045Z,12.90
2023-02-11T09:08:59.443Z,13.40
2023-02-11T09:12:02.045Z,14.00
2023-02-11T09:15:04.431Z,14.90
2023-02-11T09:18:06.582Z,15.70
2023-02-11T09:21:09.596Z,16.10
2023-02-11T09:24:12.484Z,16.60
2023-02-11T09:27:14.573Z,16.70
2023-02-11T09:30:16.579Z,16.60
2023-02-11T09:33:18.836Z,16.20
2023-02-11T09:36:23.896Z,15.40
2023-02-11T09:39:26.841Z,14.60
2023-02-11T09:43:04.305Z,13.50
2023-02-11T09:46:07.129Z,12.90
2023-02-11T09:49:19.945Z,13.10
2023-02-11T09:52:30.080Z,13.90
2023-02-11T09:55:39.996Z,14.60
2023-02-11T09:58:44.419Z,15.50
2023-02-11T10:02:15.392Z,15.40
2023-02-11T10:05:48.156Z,15.50
2023-02-11T10:09:02.196Z,14.90
2023-02-11T10:12:25.543Z,14.30
2023-02-11T10:15:55.492Z,14.30
2023-02-11T10:19:22.530Z,14.10
2023-02-11T10:22:40.624Z,14.60
2023-02-11T10:25:50.875Z,14.50
2023-02-11T10:28:56.100Z,14.20
2023-02-11T10:32:01.830Z,14.30
2023-02-11T10:35:15.429Z,15.30
2023-02-11T10:38:17.891Z,16.00
2023-02-11T10:41:37.523Z,16.30
2023-02-11T10:44:52.405Z,15.90
2023-02-11T10:47:55.359Z,15.50
2023-02-11T10:51:08.470Z,14.40
2023-02-11T10:54:19.563Z,14.20
2023-02-11T10:57:21.743Z,13.90
2023-02-11T11:00:34.224Z,14.10
2023-02-11T11:03:46.811Z,13.90
2023-02-11T11:06:50.718Z,14.10
2023-02-11T11:09:59.722Z,14.50
2023-02-11T11:13:01.777Z,15.70
2023-02-11T11:16:12.605Z,17.00
2023-02-11T11:19:21.530Z,18.30
2023-02-11T11:22:23.867Z,19.20
2023-02-11T11:25:30.626Z,18.60
2023-02-11T11:28:56.170Z,17.40
2023-02-11T11:32:05.436Z,16.60
2023-02-11T11:35:25.915Z,15.90
2023-02-11T11:38:30.427Z,15.90
2023-02-11T11:41:34.913Z,16.10
2023-02-11T11:44:37.745Z,16.30
2023-02-11T11:47:51.792Z,16.00
2023-02-11T11:51:01.523Z,16.10
2023-02-11T11:54:06.451Z,15.90
2023-02-11T11:57:18.699Z,15.70
2023-02-11T12:00:27.978Z,15.90
2023-02-11T12:03:46.532Z,15.90
2023-02-11T12:06:57.826Z,15.60
2023-02-11T12:10:14.618Z,15.70
2023-02-11T12:13:32.952Z,15.60
2023-02-11T12:16:49.811Z,15.20
2023-02-11T12:20:14.288Z,15.20
2023-02-11T12:23:50.273Z,15.00
2023-02-11T12:27:13.197Z,15.00
2023-02-11T12:30:34.028Z,14.80
2023-02-11T12:33:47.568Z,14.80
2023-02-11T12:37:15.765Z,14.90
2023-02-11T12:40:34.873Z,14.90
2023-02-11T12:43:43.677Z,15.10
2023-02-11T12:47:17.128Z,14.90
2023-02-11T12:50:19.511Z,14.90
2023-02-11T12:53:49.411Z,15.10
2023-02-11T12:56:59.397Z,15.20
2023-02-11T13:00:08.598Z,14.90
2023-02-11T13:03:23.833Z,14.90
2023-02-11T13:06:40.040Z,15.10
2023-02-11T13:09:48.871Z,15.00
2023-02-11T13:13:11.473Z,15.00
2023-02-11T13:16:25.688Z,15.00
2023-02-11T13:19:46.014Z,15.00
2023-02-11T13:23:01.783Z,15.00
2023-02-11T13:26:25.575Z,15.20
2023-02-11T13:29:51.133Z,15.00
2023-02-11T13:32:55.890Z,15.10
2023-02-11T13:35:57.913Z,15.00
2023-02-11T13:39:06.529Z,15.00
2023-02-11T13:42:16.548Z,15.10
2023-02-11T13:45:42.083Z,15.10
2023-02-11T13:48:53.245Z,15.20
2023-02-11T13:51:56.761Z,14.80
2023-02-11T13:55:15.027Z,14.80
2023-02-11T13:58:29.109Z,14.60
2023-02-11T14:02:07.682Z,14.60
2023-02-11T14:05:34.325Z,14.90
2023-02-11T14:08:55.301Z,14.90
2023-02-11T14:12:23.599Z,14.70
2023-02-11T14:15:27.585Z,14.40
2023-02-11T14:18:44.440Z,14.40
2023-02-11T14:21:47.377Z,14.40
2023-02-11T14:24:52.641Z,14.50
2023-02-11T14:28:04.897Z,14.60
2023-02-11T14:31:14.868Z,14.50
2023-02-11T14:34:29.005Z,14.70
2023-02-11T14:37:40.392Z,14.50
2023-02-11T14:40:51.762Z,14.30
2023-02-11T14:44:17.508Z,14.20
2023-02-11T14:47:21.133Z,14.20
2023-02-11T14:50:28.220Z,14.40
2023-02-11T14:53:33.067Z,14.50
2023-02-11T14:56:36.388Z,14.50
2023-02-11T14:59:39.368Z,14.50
2023-02-11T15:02:43.741Z,14.50
2023-02-11T15:05:45.918Z,14.50
2023-02-11T15:09:00.958Z,14.60
2023-02-11T15:12:03.949Z,14.60
2023-02-11T15:15:06.323Z,14.50
2023-02-11T15:18:09.752Z,14.50
2023-02-11T15:21:11.849Z,14.40
2023-02-11T15:24:31.791Z,14.40
2023-02-11T15:27:49.279Z,14.40
2023-02-11T15:31:03.435Z,14.40
2023-02-11T15:34:09.206Z,14.20
2023-02-11T15:37:29.888Z,14.20
2023-02-11T15:40:37.337Z,14.30
2023-02-11T15:43:48.043Z,14.20
2023-02-11T15:46:50.251Z,14.30
2023-02-11T15:49:52.514Z,14.30
2023-02-11T15:52:57.533Z,14.30
2023-02-11T15:56:42.284Z,14.30
2023-02-11T15:59:54.051Z,14.30
2023-02-11T16:02:56.492Z,14.30
2023-02-11T16:06:20.317Z,14.30
2023-02-11T16:09:33.147Z,14.20
2023-02-11T16:12:35.257Z,14.20
2023-02-11T16:15:52.571Z,14.00
2023-02-11T16:19:04.880Z,14.00
2023-02-11T16:22:11.728Z,13.90
2023-02-11T16:25:22.357Z,13.90
2023-02-11T16:28:24.729Z,13.70
2023-02-11T16:31:34.301Z,13.70
2023-02-11T16:34:37.247Z,13.70
2023-02-11T16:37:39.458Z,13.70
2023-02-11T16:40:42.330Z,13.70
2023-02-11T16:43:44.391Z,13.70
2023-02-11T16:46:47.775Z,13.60
2023-02-11T16:49:50.428Z,13.70
2023-02-11T16:52:54.429Z,13.70
2023-02-11T16:55:56.414Z,13.70
2023-02-11T16:58:58.786Z,13.60
2023-02-11T17:02:00.831Z,13.60
2023-02-11T17:05:05.784Z,13.60
2023-02-11T17:08:09.842Z,13.50
2023-02-11T17:11:16.859Z,13.60
2023-02-11T17:14:20.373Z,13.50
2023-02-11T17:17:29.014Z,13.50
2023-02-11T17:20:31.122Z,13.50
2023-02-11T17:23:33.166Z,13.50
2023-02-11T17:26:37.006Z,13.40
2023-02-11T17:29:41.139Z,13.40
2023-02-11T17:32:43.198Z,13.30
2023-02-11T17:35:45.759Z,13.30
2023-02-11T17:38:47.815Z,13.30
2023-02-11T17:41:50.904Z,13.30
2023-02-11T17:44:53.062Z,13.30
2023-02-11T17:47:55.228Z,13.20
2023-02-11T17:50:57.408Z,13.20
2023-02-11T17:54:01.765Z,13.20
2023-02-11T17:57:04.006Z,13.20
2023-02-11T18:00:07.858Z,13.10
2023-02-11T18:03:10.093Z,13.20
2023-02-11T18:06:12.812Z,13.20
2023-02-11T18:09:14.917Z,13.10
2023-02-11T18:12:25.136Z,13.10
2023-02-11T18:15:27.599Z,13.10
2023-02-11T18:18:29.890Z,13.10
2023-02-11T18:21:32.260Z,13.10
2023-02-11T18:24:34.343Z,13.10
2023-02-11T18:27:36.525Z,13.10
2023-02-11T18:30:38.662Z,13.10
2023-02-11T18:33:42.424Z,13.10
2023-02-11T18:36:44.805Z,13.10
2023-02-11T18:39:46.818Z,13.00
2023-02-11T18:42:48.989Z,13.00
2023-02-11T18:45:51.761Z,13.00
2023-02-11T18:48:56.269Z,13.00
2023-02-11T18:51:58.949Z,13.00
2023-02-11T18:55:01.038Z,12.90
2023-02-11T18:58:03.177Z,12.90
2023-02-11T19:01:17.741Z,12.90
2023-02-11T19:04:20.895Z,12.90
2023-02-11T19:07:23.049Z,13.00
2023-02-11T19:10:28.779Z,13.00
2023-02-11T19:13:31.099Z,13.00
2023-02-11T19:16:33.211Z,13.00
2023-02-11T19:19:36.732Z,13.00
2023-02-11T19:22:38.990Z,12.90
2023-02-11T19:25:48.024Z,13.00
2023-02-11T19:28:50.403Z,12.90
2023-02-11T19:31:53.201Z,12.90
2023-02-11T19:34:55.403Z,12.90
2023-02-11T19:37:57.408Z,12.80
2023-02-11T19:40:59.554Z,12.80
2023-02-11T19:44:02.654Z,12.80
2023-02-11T19:47:05.148Z,12.80
2023-02-11T19:50:08.071Z,12.80
2023-02-11T19:53:10.407Z,12.80
2023-02-11T19:56:14.239Z,12.80
2023-02-11T19:59:16.832Z,12.70
2023-02-11T20:02:18.893Z,12.70
2023-02-11T20:05:21.318Z,12.70
2023-02-11T20:08:23.307Z,12.70
2023-02-11T20:11:27.058Z,12.70
2023-02-11T20:14:29.056Z,12.70
2023-02-11T20:17:31.123Z,12.70
2023-02-11T20:20:33.376Z,12.70
2023-02-11T20:23:36.458Z,12.70
2023-02-11T20:26:41.780Z,12.70
2023-02-11T20:29:45.416Z,12.70
2023-02-11T20:32:47.578Z,12.70
2023-02-11T20:35:56.784Z,12.70
2023-02-11T20:39:00.622Z,12.60
2023-02-11T20:42:03.133Z,12.60
2023-02-11T20:45:05.957Z,12.60
2023-02-11T20:48:08.145Z,12.60
2023-02-11T20:51:16.491Z,12.60
2023-02-11T20:54:21.239Z,12.60
2023-02-11T20:57:23.507Z,12.50
2023-02-11T21:00:25.711Z,12.50
2023-02-11T21:03:28.112Z,12.40
2023-02-11T21:06:40.514Z,12.40
2023-02-11T21:09:42.742Z,12.40
2023-02-11T21:12:45.627Z,12.40
2023-02-11T21:15:55.944Z,12.40
2023-02-11T21:18:58.697Z,12.40
2023-02-11T21:22:01.866Z,12.40
2023-02-11T21:25:06.228Z,12.40
2023-02-11T21:28:09.528Z,12.40
2023-02-11T21:31:22.209Z,12.40
2023-02-11T21:34:24.711Z,12.40
2023-02-11T21:37:27.625Z,12.50
2023-02-11T21:40:30.084Z,12.40
2023-02-11T21:43:33.315Z,12.50
2023-02-11T21:46:35.633Z,12.40
2023-02-11T21:49:38.332Z,12.50
2023-02-11T21:52:40.716Z,12.50
2023-02-11T21:55:43.951Z,12.50
2023-02-11T21:58:46.891Z,12.50
2023-02-11T22:01:49.457Z,12.50
2023-02-11T22:04:51.971Z,12.50
2023-02-11T22:07:54.919Z,12.50
2023-02-11T22:11:03.568Z,12.50
2023-02-11T22:14:09.256Z,12.50
2023-02-11T22:17:13.541Z,12.50
2023-02-11T22:20:17.143Z,12.50
2023-02-11T22:23:19.528Z,12.50
2023-02-11T22:26:24.728Z,12.50
2023-02-11T22:29:27.257Z,12.50
2023-02-11T22:32:29.653Z,12.50
2023-02-11T22:35:34.695Z,12.40
2023-02-11T22:38:37.094Z,12.40
2023-02-11T22:41:41.159Z,12.40
2023-02-11T22:44:43.398Z,12.40
2023-02-11T22:47:45.806Z,12.40
2023-02-11T22:50:49.171Z,12.40
2023-02-11T22:53:53.518Z,12.40
2023-02-11T22:56:55.866Z,12.40
2023-02-11T22:59:58.089Z,12.40
2023-02-11T23:03:00.785Z,12.40
2023-02-11T23:06:04.066Z,12.30
2023-02-11T23:09:08.992Z,12.40
2023-02-11T23:12:12.087Z,12.30
2023-02-11T23:15:14.565Z,12.30
2023-02-11T23:18:16.750Z,12.30
2023-02-11T23:21:25.252Z,12.30
2023-02-11T23:24:27.676Z,12.30
2023-02-11T23:27:29.728Z,12.30
2023-02-11T23:30:31.748Z,12.30
2023-02-11T23:33:33.857Z,12.30
2023-02-11T23:36:36.626Z,12.30
2023-02-11T23:39:38.708Z,12.30
2023-02-11T23:42:42.064Z,12.30
2023-02-11T23:45:45.060Z,12.30
2023-02-11T23:48:47.607Z,12.30
2023-02-11T23:51:50.521Z,12.20
2023-02-11T23:54:52.550Z,12.10
2023-02-11T23:57:54.541Z,12.20
